Overall Pressure and Temp Fo

24 Hour Pressure and Temp Fo
Weather Index
Time Temp Pressure Humidity
Tue, Feb 20, 2018 at 6:00 PM ( 11.498℉ )- ( -11.39℃ ) 1019 - (5.75) 66%
Tue, Feb 20, 2018 at 5:00 PM ( 32℉ )- ( ℃ ) - (-1013.25) %
Tue, Feb 20, 2018 at 4:00 PM ( 13.622℉ )- ( -10.21℃ ) 1018 - (4.75) 56%
Tue, Feb 20, 2018 at 3:00 PM ( 13.226℉ )- ( -10.43℃ ) 1017 - (3.75) 56%
Tue, Feb 20, 2018 at 2:00 PM ( 32℉ )- ( ℃ ) - (-1013.25) %
Tue, Feb 20, 2018 at 1:00 PM ( 10.688℉ )- ( -11.84℃ ) 1013 - (-0.25) 72%
Tue, Feb 20, 2018 at 12:00 PM ( 10.652℉ )- ( -11.86℃ ) 1016 - (2.75) 52%
Tue, Feb 20, 2018 at 11:00 AM ( 6.368℉ )- ( -14.24℃ ) 1016 - (2.75) 56%
Tue, Feb 20, 2018 at 10:00 AM ( 3.074℉ )- ( -16.07℃ ) 1016 - (2.75) 71%
Tue, Feb 20, 2018 at 9:00 AM ( 0.013999999999999℉ )- ( -17.77℃ ) 1015 - (1.75) 84%
Tue, Feb 20, 2018 at 8:00 AM ( -5.944℉ )- ( -21.08℃ ) 1015 - (1.75) 76%
Tue, Feb 20, 2018 at 7:00 AM ( -5.188℉ )- ( -20.66℃ ) 1014 - (0.75) 69%
Tue, Feb 20, 2018 at 6:00 AM ( -3.406℉ )- ( -19.67℃ ) 1013 - (-0.25) 76%
Tue, Feb 20, 2018 at 5:00 AM ( -0.112℉ )- ( -17.84℃ ) 1013 - (-0.25) 77%
Tue, Feb 20, 2018 at 4:00 AM ( 1.382℉ )- ( -17.01℃ ) 1011 - (-2.25) 77%
Tue, Feb 20, 2018 at 3:00 AM ( 2.282℉ )- ( -16.51℃ ) 1012 - (-1.25) 77%
Tue, Feb 20, 2018 at 2:00 AM ( 2.894℉ )- ( -16.17℃ ) 1012 - (-1.25) 77%
Tue, Feb 20, 2018 at 1:00 AM ( 2.84℉ )- ( -16.2℃ ) 1010 - (-3.25) 84%
Tue, Feb 20, 2018 at 12:00 AM ( 4.694℉ )- ( -15.17℃ ) 1009 - (-4.25) 77%
Mon, Feb 19, 2018 at 11:00 PM ( 6.224℉ )- ( -14.32℃ ) 1008 - (-5.25) 84%


Temp Data Info
All Data is Loveland Colorado. Over time ill expand to more cities however right now i want to collect the data.

Live Data

8.402° F

1019 Pressure

71% Humidity

1013.25 Is Avarage Sea Level Pressure.
The Differental is 5.75
Max Temp Prediction: 12.2°F
Min Temp Prediction: 3.2°F

Records
The Highest Record Temp Set here is:

49.586°F

What is Weather ID?
WeatherID is a 24 hour intiger system that allows a restful rotation of weather information per day. This is designed to prevent the need for multiple cron processes on a website.